createdAt,value
2023-12-04T06:28:27.487Z,63.19
2023-12-04T06:30:31.174Z,62.52
2023-12-04T06:32:34.528Z,62.19
2023-12-04T06:34:38.296Z,61.77
2023-12-04T06:36:42.669Z,61.42
2023-12-04T06:38:49.933Z,61.21
2023-12-04T06:40:53.401Z,60.84
2023-12-04T06:42:55.857Z,60.65
2023-12-04T06:45:00.642Z,60.52
2023-12-04T06:47:04.431Z,60.16
2023-12-04T06:49:08.671Z,59.80
2023-12-04T06:51:11.779Z,59.94
2023-12-04T06:53:14.892Z,59.79
2023-12-04T06:55:17.816Z,59.67
2023-12-04T06:57:20.727Z,59.64
2023-12-04T06:59:23.675Z,59.29
2023-12-04T07:01:28.734Z,59.37
2023-12-04T07:03:31.719Z,59.37
2023-12-04T07:05:34.626Z,59.21
2023-12-04T07:07:37.425Z,58.86
2023-12-04T07:09:41.695Z,59.02
2023-12-04T07:11:44.912Z,58.60
2023-12-04T07:13:47.857Z,58.47
2023-12-04T07:15:50.768Z,58.72
2023-12-04T07:17:56.769Z,58.55
2023-12-04T07:20:00.581Z,58.31
2023-12-04T07:22:03.570Z,58.40
2023-12-04T07:24:06.888Z,58.39
2023-12-04T07:26:10.013Z,58.20
2023-12-04T07:28:13.055Z,58.10
2023-12-04T07:30:19.229Z,58.27
2023-12-04T07:32:22.341Z,58.10
2023-12-04T07:34:26.647Z,57.94
2023-12-04T07:36:29.945Z,57.98
2023-12-04T07:38:33.115Z,57.80
2023-12-04T07:40:36.087Z,57.78
2023-12-04T07:42:38.322Z,57.51
2023-12-04T07:44:41.309Z,57.51
2023-12-04T07:46:44.299Z,57.38
2023-12-04T07:48:47.502Z,57.46
2023-12-04T07:50:51.957Z,57.47
2023-12-04T07:52:54.960Z,57.36
2023-12-04T07:54:57.989Z,57.11
2023-12-04T07:57:01.246Z,57.02
2023-12-04T07:59:04.264Z,57.23
2023-12-04T08:01:08.066Z,56.94
2023-12-04T08:03:11.135Z,56.82
2023-12-04T08:05:14.726Z,56.65
2023-12-04T08:07:19.063Z,56.80
2023-12-04T08:09:21.974Z,56.60
2023-12-04T08:11:24.938Z,56.76
2023-12-04T08:13:28.904Z,56.85
2023-12-04T08:15:30.773Z,56.65
2023-12-04T08:17:33.855Z,56.67
2023-12-04T08:19:38.937Z,56.39
2023-12-04T08:21:41.978Z,56.61
2023-12-04T08:23:45.592Z,56.27
2023-12-04T08:25:48.486Z,56.39
2023-12-04T08:27:52.420Z,56.41
2023-12-04T08:29:55.372Z,56.56
2023-12-04T08:31:58.223Z,56.52
2023-12-04T08:34:01.277Z,56.25
2023-12-04T08:36:04.988Z,56.27
2023-12-04T08:38:08.084Z,56.30
2023-12-04T08:40:13.872Z,56.23
2023-12-04T08:42:21.568Z,56.22
2023-12-04T08:44:27.141Z,56.14
2023-12-04T08:46:30.325Z,56.21
2023-12-04T08:48:33.949Z,55.94
2023-12-04T08:50:38.055Z,55.96
2023-12-04T08:52:42.729Z,56.13
2023-12-04T08:54:45.951Z,55.99
2023-12-04T08:56:50.437Z,55.97
2023-12-04T08:58:53.517Z,55.70
2023-12-04T09:00:56.465Z,55.95
2023-12-04T09:03:08.115Z,55.88
2023-12-04T09:05:13.861Z,55.79
2023-12-04T09:09:23.404Z,55.77
2023-12-04T09:11:26.365Z,55.47
2023-12-04T09:13:32.822Z,55.74
2023-12-04T09:15:36.075Z,55.82
2023-12-04T09:19:43.141Z,55.54
2023-12-04T09:21:47.009Z,55.64
2023-12-04T09:23:51.211Z,55.57
2023-12-04T09:25:54.576Z,55.41
2023-12-04T09:27:57.924Z,55.71
2023-12-04T09:30:02.314Z,55.53
2023-12-04T09:32:04.527Z,55.67
2023-12-04T09:34:09.286Z,55.52
2023-12-04T09:36:12.515Z,55.58
2023-12-04T09:38:15.487Z,55.47
2023-12-04T09:40:18.743Z,55.46
2023-12-04T09:42:21.897Z,55.66
2023-12-04T09:44:26.408Z,55.49
2023-12-04T09:46:31.585Z,55.49
2023-12-04T09:48:36.271Z,55.58
2023-12-04T09:50:40.600Z,55.50
2023-12-04T09:52:43.832Z,55.45
2023-12-04T09:54:46.796Z,55.44
2023-12-04T09:56:51.120Z,55.54
2023-12-04T09:59:00.075Z,55.61
2023-12-04T10:01:03.755Z,55.24
2023-12-04T10:03:08.362Z,55.30
2023-12-04T10:05:10.733Z,55.36
2023-12-04T10:07:13.997Z,55.40
2023-12-04T10:09:19.323Z,55.53
2023-12-04T10:11:22.920Z,55.20
2023-12-04T10:13:55.962Z,55.46
2023-12-04T10:15:50.089Z,55.42
2023-12-04T10:17:53.237Z,55.34
2023-12-04T10:20:11.912Z,55.29
2023-12-04T10:22:15.387Z,55.16
2023-12-04T10:24:32.788Z,55.22
2023-12-04T10:26:35.880Z,55.09
2023-12-04T10:28:40.010Z,55.25
2023-12-04T10:30:43.296Z,55.21
2023-12-04T10:32:46.206Z,55.26
2023-12-04T10:34:50.276Z,55.16
2023-12-04T10:36:54.961Z,55.09
2023-12-04T10:39:01.740Z,55.38
2023-12-04T10:41:14.603Z,55.32
2023-12-04T10:43:18.686Z,55.15
2023-12-04T10:45:23.761Z,55.29
2023-12-04T10:47:27.792Z,55.30
2023-12-04T10:49:30.982Z,55.44
2023-12-04T10:51:35.380Z,55.26
2023-12-04T10:53:42.159Z,55.32
2023-12-04T10:55:47.097Z,55.31
2023-12-04T10:57:53.766Z,55.36
2023-12-04T10:59:59.443Z,55.62
2023-12-04T11:02:04.770Z,55.51
2023-12-04T11:04:12.423Z,55.77
2023-12-04T11:06:18.908Z,55.59
2023-12-04T11:08:24.086Z,55.79
2023-12-04T11:10:31.716Z,55.84
2023-12-04T11:12:34.477Z,55.96
2023-12-04T11:14:46.283Z,56.01
2023-12-04T11:16:51.060Z,55.88
2023-12-04T11:19:05.854Z,55.80
2023-12-04T11:21:11.517Z,56.04
2023-12-04T11:23:17.085Z,56.20
2023-12-04T11:25:20.054Z,56.20
2023-12-04T11:27:25.369Z,56.42
2023-12-04T11:29:29.342Z,56.28
2023-12-04T11:31:32.639Z,56.53
2023-12-04T11:33:38.055Z,56.39
2023-12-04T11:35:41.222Z,56.36
2023-12-04T11:37:44.503Z,56.56
2023-12-04T11:39:49.247Z,56.60
2023-12-04T11:41:52.346Z,56.37
2023-12-04T11:43:57.242Z,56.38
2023-12-04T11:46:10.546Z,56.50
2023-12-04T11:48:13.650Z,56.45
2023-12-04T11:50:17.021Z,56.55
2023-12-04T11:52:34.881Z,56.77
2023-12-04T11:55:01.288Z,56.95
2023-12-04T11:57:23.668Z,56.77
2023-12-04T11:59:28.436Z,56.88
2023-12-04T12:01:35.501Z,57.07
2023-12-04T12:03:39.080Z,57.31
2023-12-04T12:05:43.412Z,57.37
2023-12-04T12:07:45.891Z,57.49
2023-12-04T12:09:50.159Z,57.64
2023-12-04T12:11:54.123Z,57.58
2023-12-04T12:13:57.325Z,57.64
2023-12-04T12:16:03.346Z,57.56
2023-12-04T12:18:08.705Z,57.96
2023-12-04T12:20:14.107Z,58.04
2023-12-04T12:22:17.266Z,58.01
2023-12-04T12:24:20.660Z,57.82
2023-12-04T12:26:24.257Z,58.18
2023-12-04T12:28:27.288Z,58.42
2023-12-04T12:30:30.242Z,58.18
2023-12-04T12:32:35.601Z,58.42
2023-12-04T12:34:38.589Z,58.25
2023-12-04T12:36:42.789Z,58.68
2023-12-04T12:38:50.611Z,58.67
2023-12-04T12:40:53.745Z,58.77
2023-12-04T12:43:08.431Z,58.77
2023-12-04T12:45:13.893Z,58.82
2023-12-04T12:47:17.435Z,58.71
2023-12-04T12:51:28.652Z,59.10
2023-12-04T12:53:35.032Z,58.96
2023-12-04T12:55:40.288Z,59.13
2023-12-04T12:57:43.602Z,59.06
2023-12-04T12:59:46.756Z,59.17
2023-12-04T13:01:50.504Z,59.27
2023-12-04T13:03:53.947Z,59.27
2023-12-04T13:05:58.719Z,59.49
2023-12-04T13:08:01.904Z,59.48
2023-12-04T13:10:06.211Z,59.64
2023-12-04T13:12:11.187Z,59.57
2023-12-04T13:14:14.527Z,59.77
2023-12-04T13:16:17.920Z,59.67
2023-12-04T13:18:20.866Z,59.79
2023-12-04T13:20:24.545Z,59.73
2023-12-04T13:22:30.259Z,60.06
2023-12-04T13:24:33.514Z,59.98
2023-12-04T13:26:36.584Z,60.08
2023-12-04T13:28:44.248Z,60.29
2023-12-04T13:30:48.100Z,60.31
2023-12-04T13:32:51.613Z,60.34
2023-12-04T13:34:56.557Z,60.46
2023-12-04T13:37:00.237Z,60.29
2023-12-04T13:39:05.459Z,60.46
2023-12-04T13:41:40.837Z,60.52
2023-12-04T13:43:51.612Z,60.35
2023-12-04T13:45:56.001Z,60.51
2023-12-04T13:47:59.179Z,60.36
2023-12-04T13:50:02.653Z,60.58
2023-12-04T13:52:09.261Z,60.62
2023-12-04T13:54:21.991Z,60.79
2023-12-04T13:56:42.678Z,60.87
2023-12-04T13:58:46.162Z,60.95
2023-12-04T14:00:49.169Z,60.66
2023-12-04T14:02:54.871Z,60.69
2023-12-04T14:04:58.158Z,60.55
2023-12-04T14:07:04.494Z,60.77
2023-12-04T14:09:11.586Z,60.75
2023-12-04T14:11:16.574Z,60.79
2023-12-04T14:13:19.919Z,60.57
2023-12-04T14:15:23.232Z,60.71
2023-12-04T14:17:26.172Z,60.73
2023-12-04T14:19:29.244Z,60.60
2023-12-04T14:21:32.167Z,60.93
2023-12-04T14:23:35.385Z,60.68
2023-12-04T14:25:38.426Z,60.70
2023-12-04T14:27:44.517Z,60.71
2023-12-04T14:29:47.466Z,60.86
2023-12-04T14:31:51.372Z,60.62
2023-12-04T14:33:54.915Z,60.71
2023-12-04T14:35:58.251Z,60.71
2023-12-04T14:38:01.292Z,60.86
2023-12-04T14:40:05.740Z,61.02
2023-12-04T14:42:08.973Z,60.89
2023-12-04T14:44:12.318Z,60.92
2023-12-04T14:46:15.281Z,61.01
2023-12-04T14:48:18.171Z,60.87
2023-12-04T14:50:21.828Z,60.90
2023-12-04T14:52:24.777Z,61.01
2023-12-04T14:54:38.733Z,60.98
2023-12-04T14:57:01.160Z,60.92
2023-12-04T14:59:20.978Z,61.21
2023-12-04T15:04:47.218Z,61.03
2023-12-04T15:07:22.345Z,61.07
2023-12-04T15:10:07.600Z,61.15
2023-12-04T15:12:23.537Z,61.13
2023-12-04T15:14:37.259Z,61.29
2023-12-04T15:16:46.304Z,61.19
2023-12-04T15:19:15.658Z,61.39
2023-12-04T15:21:19.283Z,61.58
2023-12-04T15:23:22.404Z,61.50
2023-12-04T15:25:25.048Z,61.44
2023-12-04T15:27:27.997Z,61.56
2023-12-04T15:29:31.415Z,61.40
2023-12-04T15:31:34.562Z,61.46
2023-12-04T15:33:36.766Z,61.36
2023-12-04T15:35:39.592Z,61.36
2023-12-04T15:37:42.782Z,61.54
2023-12-04T15:39:45.633Z,61.57
2023-12-04T15:41:47.649Z,61.32
2023-12-04T15:43:50.529Z,61.27
2023-12-04T15:45:52.518Z,61.57
2023-12-04T15:47:55.524Z,61.44
2023-12-04T15:49:59.191Z,61.66
2023-12-04T15:52:02.158Z,61.71
2023-12-04T15:54:07.141Z,61.66
2023-12-04T15:56:11.107Z,61.86
2023-12-04T15:58:13.167Z,61.88
2023-12-04T16:00:17.224Z,61.85
2023-12-04T16:02:19.786Z,61.88
2023-12-04T16:04:22.851Z,62.02
2023-12-04T16:06:25.933Z,61.87
2023-12-04T16:08:28.957Z,61.86
2023-12-04T16:10:33.182Z,61.82
2023-12-04T16:12:36.285Z,61.79
2023-12-04T16:14:39.219Z,61.91
2023-12-04T16:16:42.113Z,61.83
2023-12-04T16:18:45.298Z,61.96
2023-12-04T16:20:48.732Z,62.04
2023-12-04T16:22:50.695Z,62.07
2023-12-04T16:24:53.689Z,62.11
2023-12-04T16:26:58.086Z,62.26
2023-12-04T16:29:02.263Z,62.36
2023-12-04T16:31:07.200Z,62.36
2023-12-04T16:33:11.025Z,62.13
2023-12-04T16:35:14.097Z,62.13
2023-12-04T16:37:17.283Z,62.18
2023-12-04T16:39:20.119Z,62.11
2023-12-04T16:41:22.978Z,62.19
2023-12-04T16:43:27.255Z,62.25
2023-12-04T16:45:30.179Z,62.09
2023-12-04T16:47:33.327Z,62.24
2023-12-04T16:49:36.500Z,62.33
2023-12-04T16:51:40.245Z,62.33
2023-12-04T16:53:43.294Z,62.58
2023-12-04T16:55:46.314Z,62.45
2023-12-04T16:57:49.442Z,62.54
2023-12-04T16:59:53.920Z,62.22
2023-12-04T17:01:58.180Z,62.49
2023-12-04T17:04:01.277Z,62.22
2023-12-04T17:06:05.013Z,62.22
2023-12-04T17:08:08.100Z,62.24
2023-12-04T17:10:11.536Z,62.33
2023-12-04T17:12:13.929Z,62.45
2023-12-04T17:14:17.884Z,62.35
2023-12-04T17:16:22.292Z,62.48
2023-12-04T17:18:25.158Z,62.50
2023-12-04T17:20:28.318Z,62.49
2023-12-04T17:22:33.979Z,62.52
2023-12-04T17:24:36.971Z,62.60
2023-12-04T17:26:39.880Z,62.65
2023-12-04T17:28:42.672Z,62.55
2023-12-04T17:30:45.521Z,62.70
2023-12-04T17:32:50.189Z,62.59
2023-12-04T17:34:53.250Z,62.60
2023-12-04T17:36:56.302Z,62.56
2023-12-04T17:38:59.095Z,62.84
2023-12-04T17:41:02.038Z,62.71
2023-12-04T17:43:04.891Z,62.68
2023-12-04T17:45:09.555Z,62.86
2023-12-04T17:47:13.144Z,62.60
2023-12-04T17:49:17.779Z,62.86
2023-12-04T17:51:20.827Z,62.88
2023-12-04T17:53:23.652Z,62.72
2023-12-04T17:55:26.519Z,62.84
2023-12-04T17:57:29.454Z,63.02
2023-12-04T17:59:31.444Z,62.86
2023-12-04T18:01:34.301Z,62.85
2023-12-04T18:03:37.494Z,62.86
2023-12-04T18:05:41.487Z,62.75
2023-12-04T18:07:45.045Z,63.07
2023-12-04T18:09:47.838Z,62.92
2023-12-04T18:11:53.013Z,62.91
2023-12-04T18:13:55.029Z,62.97
2023-12-04T18:15:58.434Z,63.09
2023-12-04T18:18:01.664Z,62.83
2023-12-04T18:20:04.933Z,62.81
2023-12-04T18:22:09.099Z,62.85
2023-12-04T18:24:11.924Z,63.02
2023-12-04T18:26:16.069Z,62.97
2023-12-04T18:28:19.486Z,63.15
2023-12-04T18:30:23.185Z,62.88
2023-12-04T18:32:25.739Z,63.16
2023-12-04T18:34:29.344Z,62.94
2023-12-04T18:36:37.395Z,63.04
2023-12-04T18:38:51.780Z,63.10
2023-12-04T18:40:54.304Z,62.89
2023-12-04T18:43:00.359Z,63.21
2023-12-04T18:45:03.929Z,63.00
2023-12-04T18:47:10.574Z,63.14
2023-12-04T18:49:14.750Z,63.32
2023-12-04T18:51:18.896Z,63.43
2023-12-04T18:53:21.330Z,63.27
2023-12-04T18:55:25.483Z,63.48
2023-12-04T18:57:28.328Z,63.37
2023-12-04T18:59:31.157Z,63.49
2023-12-04T19:01:36.022Z,63.21
2023-12-04T19:03:39.071Z,63.30
2023-12-04T19:05:42.012Z,63.54
2023-12-04T19:07:44.872Z,63.41
2023-12-04T19:09:47.770Z,63.24
2023-12-04T19:11:51.015Z,63.55
2023-12-04T19:13:53.999Z,63.52
2023-12-04T19:15:57.660Z,63.36
2023-12-04T19:18:00.706Z,63.27
2023-12-04T19:20:02.938Z,63.60
2023-12-04T19:22:05.918Z,63.48
2023-12-04T19:24:09.370Z,63.44
2023-12-04T19:26:12.253Z,63.64
2023-12-04T19:28:15.458Z,63.68
2023-12-04T19:30:18.491Z,63.56
2023-12-04T19:32:22.832Z,63.63
2023-12-04T19:34:26.890Z,63.76
2023-12-04T19:36:29.837Z,63.36
2023-12-04T19:38:32.728Z,63.72
2023-12-04T19:40:35.575Z,63.75
2023-12-04T19:42:39.266Z,63.60
2023-12-04T19:44:46.757Z,63.70
2023-12-04T19:46:49.522Z,63.48
2023-12-04T19:48:51.825Z,63.61
2023-12-04T19:50:56.844Z,63.67
2023-12-04T19:52:59.882Z,63.68
2023-12-04T19:55:02.880Z,63.73
2023-12-04T19:57:05.915Z,63.62
2023-12-04T19:59:08.707Z,63.69
2023-12-04T20:01:13.655Z,63.98
2023-12-04T20:03:16.731Z,63.99
2023-12-04T20:05:20.683Z,63.67
2023-12-04T20:07:23.795Z,63.80
2023-12-04T20:09:26.699Z,64.11
2023-12-04T20:11:29.669Z,64.14
2023-12-04T20:13:35.468Z,64.00
2023-12-04T20:15:38.764Z,64.05
2023-12-04T20:17:43.626Z,63.96
2023-12-04T20:19:46.448Z,64.11
2023-12-04T20:21:48.374Z,63.90
2023-12-04T20:23:51.437Z,64.28
2023-12-04T20:25:54.264Z,64.04
2023-12-04T20:27:57.526Z,64.10
2023-12-04T20:30:00.501Z,64.22
2023-12-04T20:32:03.436Z,64.09
2023-12-04T20:34:07.807Z,64.14
2023-12-04T20:36:13.806Z,64.13
2023-12-04T20:38:17.090Z,64.20
2023-12-04T20:40:22.060Z,64.13
2023-12-04T20:42:24.971Z,64.47
2023-12-04T20:44:27.831Z,64.23
2023-12-04T20:46:30.644Z,64.46
2023-12-04T20:48:32.970Z,64.36
2023-12-04T20:50:37.508Z,64.32
2023-12-04T20:52:40.526Z,64.64
2023-12-04T20:54:43.459Z,64.33
2023-12-04T20:56:46.278Z,64.45
2023-12-04T20:58:49.085Z,64.45
2023-12-04T21:00:51.032Z,64.54
2023-12-04T21:02:53.944Z,64.71
2023-12-04T21:04:57.035Z,64.41
2023-12-04T21:07:03.402Z,64.49
2023-12-04T21:09:07.498Z,64.57
2023-12-04T21:11:10.516Z,64.80
2023-12-04T21:13:13.336Z,64.67
2023-12-04T21:15:16.284Z,64.80
2023-12-04T21:17:19.322Z,64.75
2023-12-04T21:19:22.560Z,64.91
2023-12-04T21:21:25.507Z,64.93
2023-12-04T21:23:29.730Z,64.89
2023-12-04T21:25:32.631Z,64.96
2023-12-04T21:27:35.598Z,65.14
2023-12-04T21:29:38.589Z,64.85
2023-12-04T21:31:41.499Z,65.07
2023-12-04T21:33:44.706Z,65.05
2023-12-04T21:35:46.575Z,65.04
